Charlevoix, MI

4:07 PM EDT on October 25, 2014 (GMT -0400)
1.5 W Ironton | Change Station
CLOSE
Current Station
Personal Weather Station
Location: Charlevoix, MI
Elevation: 750 ft
Nearby Weather Stations

Elev 750 ft 45.26 °N, 85.22 °W | Updated 3 seconds ago

Clear
Clear
57.1 °F
Feels Like 57.1 °F
N
12.0
Wind Variable Wind from WSW
Gusts 20.0 mph

Today
High -- | Low -- °F
--% Chance of Precip.
Yesterday
High -- | Low -- °F
Precip. -- in
8:10 AM 6:38 PM
Waxing Crescent, 4% visible
Pressure 29.74 in
Visibility 10.0 miles
Clouds Clear
Dew Point 42 °F
Humidity 56%
Rainfall 0.00 in
Snow Depth Not available.
UV 2 out of 12
Pollen 1.90 out of 12
Ozone Good
PM2.5 Good
Flu Activity Sporadic
METAR KCVX 251955Z AUTO 26016KT 10SM CLR 14/06 A2974 RMK AO2 T01430055

More Conditions Fewer Conditions

Pressure 29.74 in
Visibility 10.0 miles
Clouds Clear
Dew Point 42 °F
Humidity 56%
Rainfall 0.00 in
Snow Depth Not available.
UV 2 out of 12
Pollen 1.90 out of 12
Ozone Good
PM2.5 Good
Flu Activity Sporadic
METAR KCVX 251955Z AUTO 26016KT 10SM CLR 14/06 A2974 RMK AO2 T01430055

More Conditions Fewer Conditions

Nowcast | as of 4:00 PM EDT on October 25, 2014

At 5 PM...mostly clear. Temperature 57. West winds 14 mph. At 7 PM...mostly clear. Temperature 55. Northwest winds 14 mph with gusts to 25 mph. At 9 PM...mostly clear. Temperature 50. Northwest winds 15 mph. At 11 PM...mostly clear. Temperature 49. Northwest winds 18 mph with gusts to 30 mph.

×

10-Day Weather Forecast

Almanac

Astronomy

Oct. 25, 2014 Rise Set
Actual Time 8:10 AM EDT 6:38 PM EDT
Civil Twilight 7:40 AM EDT 7:09 PM EDT
Nautical Twilight 7:05 AM EDT 7:43 PM EDT
Astronomical Twilight 6:31 AM EDT 8:17 PM EDT
Moon 9:52 AM EDT 7:57 PM EDT
Length of Visible Light 11h 29m
Length of Day
10h 28m
Tomorrow will be 2m 56s shorter.
Waxing Crescent, 4% of the Moon is Illuminated
Today
Waxing Crescent
Oct 30
First Quarter
Nov 6
Full
Nov 14
Last Quarter
Nov 22
New

Today's Extremes

State Highs State Lows

Community

WunderPhotos

Upload Photos

1,764,976 photos uploaded!

Nearby

Air Quality

  Air Quality AQ Index Pollutant
Yesterday Good
PM2.5
Yesterday Good
OZONE
Current Good
OZONE
Current Good
PM2.5
Saturday Good
PM2.5
Sunday Good
PM2.5
Monday Good
PM2.5

Snow Depth

Station Depth Elevation
No new snow has been reported.

Earthquake Activity

City Distance Mag. Time & Date
No recent earthquake activity has been reported nearby.
Minimum magnitude displayed is 2.5.

Coastal Water Temperatures

Place Temperature
Mackinaw City, MI 53.1 °F
Port Inland, MI 51.1 °F

Nearby Weather Stations